Southampton, NY (11968)

12:00 AM EDT on September 05, 2015 (GMT -0400)
Shinnecock Hills | | Change Station
CLOSE
Current Station
Personal Weather Station
Location: Southampton, NY
Elevation: 20 ft
Nearby Weather Stations

Elev 20 ft 40.90 °N, 72.44 °W | Updated 33 seconds ago

Clear
Clear
66.1 °F
Feels Like 66.1 °F
N
2.0
Wind Variable Wind from East
Gusts 5.0 mph

Today
High -- | Low -- °F
--% Chance of Precip.
Yesterday
High -- | Low -- °F
Precip. -- in
6:20 AM 7:15 PM
Waning Gibbous, 53% visible
Pressure 30.24 in
Visibility 10.0 miles
Clouds Few 1800 ft
Dew Point 63 °F
Humidity 90%
Rainfall Not available.
Snow Depth Not available.
UV 0 out of 12
Pollen 8.20 out of 12
Air Quality Not available.
Flu Activity Not available.
METAR KFOK 050353Z 06005KT 10SM FEW018 20/16 A3024 RMK AO2 SLP239 T02000161
Pressure 30.24 in
Visibility 10.0 miles
Clouds Few 1800 ft
Dew Point 63 °F
Humidity 90%
Rainfall Not available.
Snow Depth Not available.
UV 0 out of 12
Pollen 8.20 out of 12
Air Quality Not available.
Flu Activity Not available.
METAR KFOK 050353Z 06005KT 10SM FEW018 20/16 A3024 RMK AO2 SLP239 T02000161

10-Day Weather Forecast

×

Almanac

Astronomy

Sep. 05, 2015 Rise Set
Actual Time
Civil Twilight
Nautical Twilight
Astronomical Twilight
Moon
Length of Visible Light
Length of Day
Tomorrow will be .
, % of the Moon is Illuminated

Today's Extremes

State Highs State Lows

Community

WunderPhotos

Upload Photos

1,852,418 photos uploaded!

WunderBlogs® & News

Nearby

Air Quality

  Air Quality AQ Index Pollutant
Not available.

Snow Depth

Station Depth Elevation

Earthquake Activity

City Distance Mag. Time & Date
Minimum magnitude displayed is 2.5.

Coastal Water Temperatures

Place Temperature

Stations

Nearby Weather Stations

Station Location Temp. Windchill Dew Point Humidity Wind Precip. Elev Updated Type